Time;durP1;ratioP1;P1;durP2;ratioP2;P2;SDS_P1;SDS_P2;PMS_P1;PMS_P2;Temp;Humidity;BMP_temperature;BMP_pressure;BME280_temperature;BME280_humidity;BME280_pressure;Samples;Min_cycle;Max_cycle;Signal;HPM_P1;HPM_P2
2020/12/03 00:01:22;;;;;;;56.10;23.33;;;;;;;-4.71;100.00;100748.94;4902357;29;20460;-74
2020/12/03 00:03:55;;;;;;;54.37;22.50;;;;;;;-4.74;100.00;100746.28;4896334;29;20503;-75
2020/12/03 00:06:30;;;;;;;53.10;24.53;;;;;;;-4.73;100.00;100745.47;4905966;29;20469;-74
2020/12/03 00:09:08;;;;;;;58.73;27.37;;;;;;;-4.73;99.79;100747.13;4896934;29;20832;-75
2020/12/03 00:11:45;;;;;;;57.77;26.17;;;;;;;-4.71;99.78;100748.06;4912744;29;20511;-75
2020/12/03 00:14:19;;;;;;;54.23;23.47;;;;;;;-4.74;99.83;100733.56;4899104;29;20469;-74
2020/12/03 00:16:54;;;;;;;61.97;26.83;;;;;;;-4.80;99.37;100734.19;4902385;29;20539;-75
2020/12/03 00:19:31;;;;;;;60.87;25.83;;;;;;;-4.76;99.47;100736.03;4900432;29;20457;-75
2020/12/03 00:22:11;;;;;;;61.87;27.17;;;;;;;-4.73;99.25;100724.25;4898821;29;20476;-75
2020/12/03 00:24:40;;;;;;;64.13;28.30;;;;;;;-4.70;99.74;100725.22;4901677;29;20479;-74
2020/12/03 00:27:20;;;;;;;65.80;29.77;;;;;;;-4.76;99.25;100728.41;4900738;29;20460;-74
2020/12/03 00:30:07;;;;;;;66.50;26.47;;;;;;;-4.73;99.07;100729.31;4899182;29;20489;-74
2020/12/03 00:32:36;;;;;;;69.00;27.90;;;;;;;-4.70;99.44;100730.31;4894151;29;20504;-75
2020/12/03 00:35:08;;;;;;;68.73;29.20;;;;;;;-4.69;99.37;100734.59;4929793;29;20534;-74
2020/12/03 00:37:40;;;;;;;67.13;28.87;;;;;;;-4.69;99.12;100726.09;4896234;29;20500;-75
2020/12/03 00:40:12;;;;;;;66.87;28.93;;;;;;;-4.69;99.27;100713.38;4904024;29;20528;-74
2020/12/03 00:42:43;;;;;;;65.37;28.50;;;;;;;-4.68;99.41;100715.09;4893083;29;20463;-74
2020/12/03 00:45:14;;;;;;;74.30;30.93;;;;;;;-4.71;99.05;100707.34;4905451;29;20483;-74
2020/12/03 00:47:50;;;;;;;74.63;29.10;;;;;;;-4.69;99.17;100716.78;4910054;29;20470;-74
2020/12/03 00:50:19;;;;;;;77.07;30.20;;;;;;;-4.66;99.43;100721.09;4895018;29;20453;-75
2020/12/03 00:52:50;;;;;;;66.30;29.13;;;;;;;-4.67;99.32;100716.84;4895946;29;20487;-74
2020/12/03 00:55:30;;;;;;;75.50;29.10;;;;;;;-4.68;99.04;100717.66;4910748;29;20512;-75
2020/12/03 00:58:08;;;;;;;75.80;30.53;;;;;;;-4.58;100.00;100718.03;4926841;29;20457;-75
2020/12/03 01:00:40;;;;;;;72.93;29.83;;;;;;;-4.51;100.00;100708.94;4928398;29;20834;-75
2020/12/03 01:03:15;;;;;;;69.83;28.87;;;;;;;-4.52;100.00;100704.69;4899247;29;20504;-74
2020/12/03 01:05:49;;;;;;;72.23;28.80;;;;;;;-4.59;99.87;100690.88;4909784;29;20484;-74
2020/12/03 01:08:22;;;;;;;77.47;32.17;;;;;;;-4.64;99.08;100697.47;4928817;28;20501;-75
2020/12/03 01:10:54;;;;;;;70.63;29.50;;;;;;;-4.66;98.99;100698.22;4922772;29;20461;-75
2020/12/03 01:13:28;;;;;;;77.67;30.57;;;;;;;-4.63;99.17;100690.69;4895048;29;20472;-75
2020/12/03 01:16:03;;;;;;;81.67;31.57;;;;;;;-4.65;98.96;100679.59;4899130;29;20511;-75
2020/12/03 01:18:37;;;;;;;70.87;31.60;;;;;;;-4.64;99.31;100678.81;4891474;29;20456;-74
2020/12/03 01:21:12;;;;;;;76.00;30.10;;;;;;;-4.67;98.80;100682.09;4899108;29;20866;-75
2020/12/03 01:23:54;;;;;;;78.43;29.60;;;;;;;-4.61;98.79;100683.97;4899354;29;20472;-74
2020/12/03 01:26:29;;;;;;;72.83;29.73;;;;;;;-4.57;99.00;100680.75;4921580;29;20474;-75
2020/12/03 01:29:04;;;;;;;74.87;28.87;;;;;;;-4.54;99.25;100679.97;4897168;29;20481;-73
2020/12/03 01:31:36;;;;;;;72.77;30.13;;;;;;;-4.52;99.17;100683.44;4892288;29;20476;-73
2020/12/03 01:34:14;;;;;;;74.67;30.97;;;;;;;-4.51;99.16;100677.56;4898077;29;20463;-74
2020/12/03 01:36:53;;;;;;;78.87;31.03;;;;;;;-4.61;98.35;100677.22;4896458;29;20480;-73
2020/12/03 01:39:44;;;;;;;65.03;28.10;;;;;;;-4.60;98.06;100681.50;4909918;29;20459;-72
2020/12/03 01:42:18;;;;;;;78.10;30.80;;;;;;;-4.55;98.68;100666.41;4894284;29;20486;-72
2020/12/03 01:44:51;;;;;;;72.83;30.10;;;;;;;-4.54;98.40;100670.66;4903639;29;20480;-75
2020/12/03 01:47:39;;;;;;;64.97;27.73;;;;;;;-4.48;98.92;100672.59;4895084;29;20492;-75
2020/12/03 01:50:13;;;;;;;71.07;28.77;;;;;;;-4.48;98.51;100670.88;4914130;29;20457;-74
2020/12/03 01:52:57;;;;;;;74.87;29.80;;;;;;;-4.34;99.77;100662.84;4894311;29;20480;-74
2020/12/03 01:55:32;;;;;;;64.00;28.20;;;;;;;-4.45;98.81;100653.19;4897536;29;20875;-75
2020/12/03 01:58:19;;;;;;;69.53;29.60;;;;;;;-4.49;98.01;100656.41;4896760;29;20814;-74
2020/12/03 02:00:55;;;;;;;71.23;29.07;;;;;;;-4.48;97.93;100653.06;4896927;29;20988;-74
2020/12/03 02:03:34;;;;;;;79.77;31.07;;;;;;;-4.46;97.85;100641.25;4895693;29;21079;-74
2020/12/03 02:06:02;;;;;;;84.63;32.07;;;;;;;-4.45;97.87;100643.00;4901161;29;20504;-75
2020/12/03 02:08:34;;;;;;;80.00;31.43;;;;;;;-4.43;97.71;100641.38;4892997;29;20954;-75
2020/12/03 02:11:08;;;;;;;86.73;31.73;;;;;;;-4.41;97.86;100621.06;4896754;29;20521;-74
2020/12/03 02:14:08;;;;;;;80.00;30.43;;;;;;;-4.35;97.91;100613.63;4898875;29;20812;-74
2020/12/03 02:16:45;;;;;;;66.77;28.50;;;;;;;-4.34;97.85;100614.50;4891777;29;20481;-74
2020/12/03 02:19:28;;;;;;;79.37;30.53;;;;;;;-4.35;97.63;100611.09;4901488;29;20500;-73
2020/12/03 02:22:02;;;;;;;86.07;30.87;;;;;;;-4.41;97.41;100606.66;4898699;29;20477;-74
2020/12/03 02:24:36;;;;;;;93.83;33.53;;;;;;;-4.40;97.32;100599.88;4927221;28;20481;-74
2020/12/03 02:27:14;;;;;;;73.90;31.17;;;;;;;-4.35;97.37;100605.13;4893736;29;20468;-74
2020/12/03 02:29:50;;;;;;;79.27;31.43;;;;;;;-4.28;97.76;100604.53;4902368;29;20441;-75
2020/12/03 02:32:19;;;;;;;81.93;32.47;;;;;;;-4.26;97.72;100606.28;4891839;29;20496;-73
2020/12/03 02:34:50;;;;;;;82.20;33.13;;;;;;;-4.28;97.36;100600.28;4902117;29;20469;-74
2020/12/03 02:37:28;;;;;;;81.57;33.27;;;;;;;-4.28;97.29;100590.09;4897427;29;20457;-74
2020/12/03 02:40:05;;;;;;;88.10;32.50;;;;;;;-4.27;97.17;100593.53;4908104;29;20535;-74
2020/12/03 02:42:39;;;;;;;85.47;32.50;;;;;;;-4.29;96.80;100590.06;4900274;29;20474;-75
2020/12/03 02:45:13;;;;;;;83.67;31.70;;;;;;;-4.24;97.07;100584.31;4903302;29;20474;-75
2020/12/03 02:47:42;;;;;;;85.73;33.27;;;;;;;-4.22;97.02;100580.16;4902157;29;20467;-75
2020/12/03 02:50:12;;;;;;;71.90;30.87;;;;;;;-4.22;96.86;100574.16;4900762;29;20547;-75
2020/12/03 02:52:44;;;;;;;84.60;31.67;;;;;;;-4.11;97.94;100569.44;4898353;29;20496;-74
2020/12/03 02:55:21;;;;;;;74.40;29.33;;;;;;;-4.17;96.95;100565.00;4907685;29;20484;-74
2020/12/03 02:58:02;;;;;;;77.37;32.07;;;;;;;-4.12;97.25;100560.91;4927208;29;20476;-74
2020/12/03 03:00:42;;;;;;;86.83;31.80;;;;;;;-4.14;96.96;100567.66;4903892;29;20467;-74
2020/12/03 03:03:46;;;;;;;85.43;32.37;;;;;;;-4.11;97.07;100556.72;4903627;29;20443;-74
2020/12/03 03:06:27;;;;;;;76.60;30.60;;;;;;;-4.07;97.34;100553.44;4907251;29;20489;-74
2020/12/03 03:09:07;;;;;;;77.03;31.87;;;;;;;-4.12;96.70;100545.63;4900064;29;20520;-73
2020/12/03 03:11:41;;;;;;;82.00;29.17;;;;;;;-4.10;96.83;100538.91;4896257;29;20516;-74
2020/12/03 03:14:15;;;;;;;69.27;30.07;;;;;;;-4.09;96.99;100540.66;4903468;29;21104;-75
2020/12/03 03:16:44;;;;;;;87.67;33.10;;;;;;;-4.05;97.10;100534.81;4896416;29;20494;-75
2020/12/03 03:19:15;;;;;;;76.77;31.07;;;;;;;-4.05;97.04;100528.88;4928399;29;20463;-74
2020/12/03 03:21:53;;;;;;;78.17;29.53;;;;;;;-4.05;97.13;100521.25;4899981;29;20489;-72
2020/12/03 03:24:33;;;;;;;81.73;31.20;;;;;;;-4.02;97.24;100514.56;4904281;29;20566;-74
2020/12/03 03:27:02;;;;;;;79.00;32.07;;;;;;;-4.02;97.25;100518.78;4898384;29;20457;-75
2020/12/03 03:29:32;;;;;;;77.47;30.80;;;;;;;-4.00;97.46;100523.09;4918148;29;20469;-72
2020/12/03 03:32:13;;;;;;;83.83;33.20;;;;;;;-4.03;96.79;100527.25;4896532;29;20485;-73
2020/12/03 03:34:51;;;;;;;77.17;29.90;;;;;;;-4.02;96.84;100522.19;4903402;29;21014;-75
2020/12/03 03:37:27;;;;;;;81.50;31.13;;;;;;;-3.96;97.35;100528.31;4893706;29;20460;-72
2020/12/03 03:40:12;;;;;;;74.87;30.37;;;;;;;-3.97;97.07;100519.81;4897688;29;20881;-74
2020/12/03 03:42:41;;;;;;;80.57;30.07;;;;;;;-3.95;96.95;100512.22;4928076;29;20481;-75
2020/12/03 03:45:16;;;;;;;69.60;28.13;;;;;;;-3.91;97.39;100511.47;4918393;29;21158;-74
2020/12/03 03:47:51;;;;;;;81.90;30.17;;;;;;;-3.89;97.46;100504.75;4901128;29;20501;-74
2020/12/03 03:50:20;;;;;;;73.53;29.80;;;;;;;-3.89;97.09;100505.59;4899952;29;20985;-75
2020/12/03 03:52:49;;;;;;;78.27;30.43;;;;;;;-3.92;96.62;100499.53;4912866;29;21023;-75
2020/12/03 03:55:29;;;;;;;78.43;29.87;;;;;;;-3.88;96.67;100498.84;4897921;29;20536;-75
2020/12/03 03:58:07;;;;;;;77.93;29.33;;;;;;;-3.85;97.01;100491.31;4900510;29;21071;-74
2020/12/03 04:00:42;;;;;;;71.80;30.07;;;;;;;-3.90;96.56;100486.06;4896063;29;20968;-74
2020/12/03 04:03:23;;;;;;;87.37;31.07;;;;;;;-3.79;97.92;100475.31;4902213;29;20495;-75
2020/12/03 04:06:04;;;;;;;82.73;29.07;;;;;;;-3.72;98.15;100478.09;4893577;29;20490;-74
2020/12/03 04:08:33;;;;;;;84.77;29.73;;;;;;;-3.78;97.42;100475.38;4931656;29;20571;-75
2020/12/03 04:11:03;;;;;;;78.63;29.80;;;;;;;-3.80;97.19;100469.34;4902590;29;20470;-74
2020/12/03 04:13:32;;;;;;;70.70;29.27;;;;;;;-3.73;97.70;100463.63;4899697;29;20512;-75
2020/12/03 04:16:04;;;;;;;73.90;29.97;;;;;;;-3.77;97.33;100460.94;4895759;29;20458;-74
2020/12/03 04:18:33;;;;;;;71.43;28.57;;;;;;;-3.74;97.44;100456.81;4899760;29;20450;-73
2020/12/03 04:21:16;;;;;;;81.20;31.00;;;;;;;-3.77;97.23;100455.84;4898691;29;20467;-72
2020/12/03 04:23:49;;;;;;;74.47;29.13;;;;;;;-3.76;96.92;100448.25;4929745;29;20460;-71
2020/12/03 04:26:32;;;;;;;79.70;29.37;;;;;;;-3.77;96.86;100446.50;4892960;29;20479;-73
2020/12/03 04:29:03;;;;;;;71.73;29.53;;;;;;;-3.75;97.22;100444.00;4899809;29;20453;-72
2020/12/03 04:31:39;;;;;;;71.37;30.20;;;;;;;-3.76;96.94;100444.81;4907760;29;20491;-73
2020/12/03 04:34:42;;;;;;;80.13;29.67;;;;;;;-3.76;97.05;100438.06;4897293;29;20485;-73
2020/12/03 04:37:10;;;;;;;73.70;27.07;;;;;;;-3.80;96.69;100441.31;4895712;29;20565;-72
2020/12/03 04:39:40;;;;;;;70.23;28.47;;;;;;;-3.86;96.48;100438.59;4903072;29;20510;-73
2020/12/03 04:42:24;;;;;;;73.77;28.00;;;;;;;-3.82;97.10;100430.22;4897734;29;20545;-73
2020/12/03 04:44:54;;;;;;;64.37;26.97;;;;;;;-3.87;96.88;100424.13;4898946;29;20489;-73
2020/12/03 04:47:43;;;;;;;73.83;28.97;;;;;;;-3.86;96.92;100426.72;4898647;29;20463;-73
2020/12/03 04:50:29;;;;;;;66.03;26.20;;;;;;;-3.87;96.52;100427.56;4901216;29;20466;-73
2020/12/03 04:53:26;;;;;;;65.30;26.63;;;;;;;-3.85;96.81;100419.97;4901486;29;20481;-72
2020/12/03 04:56:02;;;;;;;63.80;27.07;;;;;;;-3.83;97.12;100408.13;4896421;29;20461;-73
2020/12/03 04:58:46;;;;;;;69.53;27.03;;;;;;;-3.83;96.90;100408.13;4930211;29;20489;-72
2020/12/03 05:01:51;;;;;;;61.43;26.27;;;;;;;-3.77;97.80;100403.19;4893062;29;20882;-70
2020/12/03 05:04:28;;;;;;;66.03;26.40;;;;;;;-3.77;97.20;100400.66;4897472;29;20548;-73
2020/12/03 05:07:00;;;;;;;63.30;25.90;;;;;;;-3.80;96.86;100405.66;4894175;29;20454;-72
2020/12/03 05:09:40;;;;;;;71.23;26.43;;;;;;;-3.79;96.72;100404.84;4899715;29;20975;-72
2020/12/03 05:12:20;;;;;;;67.53;26.23;;;;;;;-3.79;96.49;100403.97;4895266;29;20493;-71
2020/12/03 05:14:54;;;;;;;66.70;26.43;;;;;;;-3.75;96.74;100405.78;4899506;29;20545;-70
2020/12/03 05:17:43;;;;;;;65.57;26.20;;;;;;;-3.72;97.01;100414.38;4897420;29;20482;-73
2020/12/03 05:23:34;;;;;;;57.60;23.83;;;;;;;-3.56;98.22;100415.69;4898211;29;20459;-71
2020/12/03 05:26:15;;;;;;;61.77;25.90;;;;;;;-3.67;96.74;100417.94;4893281;29;20490;-73
2020/12/03 05:29:00;;;;;;;67.57;26.60;;;;;;;-3.62;97.18;100425.72;4901934;29;20454;-72
2020/12/03 05:31:36;;;;;;;64.60;26.80;;;;;;;-3.63;96.71;100419.72;4918903;29;20523;-70
2020/12/03 05:34:18;;;;;;;66.03;24.83;;;;;;;-3.56;97.19;100418.22;4893672;29;20489;-73
2020/12/03 05:37:00;;;;;;;63.60;26.17;;;;;;;-3.55;97.17;100411.44;4890231;29;20465;-73
2020/12/03 05:39:29;;;;;;;72.70;27.10;;;;;;;-3.54;96.94;100406.38;4896330;29;20852;-72
2020/12/03 05:42:06;;;;;;;61.60;27.10;;;;;;;-3.51;97.18;100401.38;4894011;29;20505;-72
2020/12/03 05:44:37;;;;;;;71.17;26.93;;;;;;;-3.50;97.18;100409.88;4896129;29;20466;-71
2020/12/03 05:47:23;;;;;;;65.63;26.20;;;;;;;-3.50;96.97;100402.22;4905295;29;20467;-73
2020/12/03 05:49:54;;;;;;;65.87;27.70;;;;;;;-3.47;97.15;100404.88;4895734;29;20452;-72
2020/12/03 05:52:23;;;;;;;67.23;26.93;;;;;;;-3.50;96.34;100399.69;4891837;29;20483;-72
2020/12/03 05:55:07;;;;;;;65.77;27.40;;;;;;;-3.44;97.00;100408.38;4896522;29;20471;-73
2020/12/03 05:57:37;;;;;;;64.10;26.00;;;;;;;-3.39;97.05;100394.88;4891485;29;21004;-73
2020/12/03 06:00:23;;;;;;;67.70;25.00;;;;;;;-3.43;96.83;100392.25;4894866;29;20487;-72
2020/12/03 06:03:12;;;;;;;67.67;25.63;;;;;;;-3.37;97.43;100393.25;4906908;29;20492;-72
2020/12/03 06:06:00;;;;;;;59.83;24.40;;;;;;;-3.40;97.14;100394.00;4895483;29;20504;-72
2020/12/03 06:08:42;;;;;;;64.93;25.20;;;;;;;-3.45;96.65;100391.38;4889199;29;20466;-73
2020/12/03 06:11:24;;;;;;;60.60;26.30;;;;;;;-3.45;96.48;100393.03;4893308;29;20461;-72
2020/12/03 06:14:21;;;;;;;60.90;24.30;;;;;;;-3.41;96.97;100394.84;4887892;29;20469;-73
2020/12/03 06:17:03;;;;;;;50.50;22.67;;;;;;;-3.45;96.39;100399.00;4892519;29;20492;-73
2020/12/03 06:20:03;;;;;;;58.87;23.50;;;;;;;-3.39;97.35;100393.19;4889886;29;20461;-73
2020/12/03 06:23:06;;;;;;;61.47;25.30;;;;;;;-3.37;96.53;100411.94;4893900;29;20494;-72
2020/12/03 06:25:43;;;;;;;62.60;24.87;;;;;;;-3.35;96.38;100401.78;4892734;29;20478;-73
2020/12/03 06:28:43;;;;;;;64.87;24.90;;;;;;;-3.32;96.97;100397.63;4891319;29;20530;-73
2020/12/03 06:31:23;;;;;;;58.50;24.70;;;;;;;-3.30;96.53;100390.03;4892996;29;20454;-72
2020/12/03 06:33:55;;;;;;;62.50;23.57;;;;;;;-3.28;96.60;100396.88;4893565;29;20513;-73
2020/12/03 06:36:38;;;;;;;64.30;25.13;;;;;;;-3.25;96.61;100396.97;4893317;29;20461;-73
2020/12/03 06:39:42;;;;;;;58.87;24.33;;;;;;;-3.19;97.10;100387.75;4909680;29;21301;-72
2020/12/03 06:42:26;;;;;;;61.07;24.07;;;;;;;-3.20;96.50;100391.13;4894842;29;20532;-72
2020/12/03 06:45:11;;;;;;;54.50;23.97;;;;;;;-3.26;95.86;100395.22;4895276;29;20574;-72
2020/12/03 06:48:27;;;;;;;58.47;23.73;;;;;;;-3.20;96.56;100392.00;4909057;29;20481;-72
2020/12/03 06:51:36;;;;;;;56.60;23.13;;;;;;;-3.22;95.95;100388.53;4899320;29;20470;-72
2020/12/03 06:54:30;;;;;;;55.63;23.07;;;;;;;-3.16;96.83;100385.28;4852158;29;20681;-73
2020/12/03 06:57:33;;;;;;;54.03;22.57;;;;;;;-3.20;96.13;100383.47;4894236;29;20506;-73
2020/12/03 07:00:34;;;;;;;58.00;23.10;;;;;;;-3.19;95.89;100383.50;4892652;29;20463;-72
2020/12/03 07:03:30;;;;;;;60.47;23.63;;;;;;;-3.15;95.67;100380.25;4879462;29;20491;-73
2020/12/03 07:06:21;;;;;;;56.77;23.07;;;;;;;-3.17;95.50;100375.91;4897743;29;20493;-71
2020/12/03 07:09:33;;;;;;;62.33;23.63;;;;;;;-3.12;96.21;100380.28;4894403;29;20492;-72
2020/12/03 07:12:33;;;;;;;58.83;24.63;;;;;;;-3.03;96.87;100371.16;4894392;29;20487;-71
2020/12/03 07:15:33;;;;;;;56.20;23.60;;;;;;;-2.96;97.44;100373.03;4896036;29;20498;-72
2020/12/03 07:18:41;;;;;;;54.20;23.20;;;;;;;-2.98;97.10;100367.88;4899306;29;20459;-73
2020/12/03 07:21:43;;;;;;;53.30;23.67;;;;;;;-3.00;96.33;100368.69;4918032;29;20955;-73
2020/12/03 07:24:16;;;;;;;54.30;21.93;;;;;;;-2.92;97.31;100362.94;4894309;29;20493;-72
2020/12/03 07:26:55;;;;;;;59.10;23.37;;;;;;;-2.92;97.07;100356.97;4907599;29;21000;-70
2020/12/03 07:29:31;;;;;;;57.63;23.10;;;;;;;-2.90;96.69;100363.00;4910741;29;20473;-70
2020/12/03 07:32:09;;;;;;;57.40;24.03;;;;;;;-2.93;96.05;100366.31;4897824;29;20479;-72
2020/12/03 07:34:47;;;;;;;57.90;24.63;;;;;;;-2.90;96.80;100357.88;4926933;29;20501;-72
2020/12/03 07:37:42;;;;;;;61.83;24.43;;;;;;;-2.92;96.64;100345.09;4900737;29;20467;-72
2020/12/03 07:40:18;;;;;;;57.27;24.17;;;;;;;-2.92;96.71;100350.19;4899356;29;20252;-73
2020/12/03 07:42:48;;;;;;;54.90;23.50;;;;;;;-2.92;96.30;100346.75;4898816;29;20545;-73
2020/12/03 07:45:43;;;;;;;60.63;23.23;;;;;;;-2.85;97.08;100328.22;4930785;29;20641;-73
2020/12/03 07:48:14;;;;;;;61.60;23.67;;;;;;;-2.84;97.25;100332.50;4896368;29;20469;-71
2020/12/03 07:51:03;;;;;;;59.40;24.67;;;;;;;-2.76;97.38;100337.78;4900186;29;20559;-73
2020/12/03 07:53:39;;;;;;;49.60;21.97;;;;;;;-2.70;97.93;100328.56;4894457;29;20473;-73
2020/12/03 07:56:38;;;;;;;57.33;23.40;;;;;;;-2.71;97.49;100324.31;4904769;29;20459;-73
2020/12/03 07:59:40;;;;;;;53.10;22.07;;;;;;;-2.68;97.46;100319.25;4897088;29;20460;-73
2020/12/03 08:02:57;;;;;;;49.77;22.33;;;;;;;-2.58;97.89;100314.38;4897132;29;20491;-74
2020/12/03 08:05:53;;;;;;;56.47;24.03;;;;;;;-2.53;98.23;100315.34;4898572;29;20489;-73
2020/12/03 08:08:37;;;;;;;53.07;22.53;;;;;;;-2.48;98.47;100327.38;4897754;29;20478;-72
2020/12/03 08:11:05;;;;;;;59.77;23.50;;;;;;;-2.51;98.03;100327.31;4901507;29;20457;-71
2020/12/03 08:13:38;;;;;;;55.13;23.43;;;;;;;-2.44;98.77;100325.75;4896540;29;20208;-72
2020/12/03 08:16:10;;;;;;;62.30;24.47;;;;;;;-2.44;98.01;100314.69;4897697;29;20464;-73
2020/12/03 08:19:01;;;;;;;56.47;23.80;;;;;;;-2.44;97.85;100304.47;4894376;29;20209;-73
2020/12/03 08:21:39;;;;;;;61.60;24.27;;;;;;;-2.37;98.01;100308.88;4898150;29;20528;-72
2020/12/03 08:24:17;;;;;;;56.50;23.70;;;;;;;-2.39;97.84;100315.63;4896629;29;20202;-73
2020/12/03 08:26:46;;;;;;;57.53;24.87;;;;;;;-2.36;97.83;100306.34;4897431;29;20521;-72
2020/12/03 08:29:37;;;;;;;60.93;23.57;;;;;;;-2.28;98.17;100304.81;4895758;29;20204;-72
2020/12/03 08:32:07;;;;;;;59.70;22.73;;;;;;;-2.22;98.27;100304.06;4901322;29;20476;-71
2020/12/03 08:34:38;;;;;;;66.07;25.70;;;;;;;-2.16;98.36;100303.38;4902517;29;20456;-73
2020/12/03 08:37:13;;;;;;;52.87;24.43;;;;;;;-2.11;98.24;100309.41;4893311;29;20479;-73
2020/12/03 08:39:51;;;;;;;53.13;23.53;;;;;;;-2.13;98.13;100305.97;4899706;29;20220;-72
2020/12/03 08:42:20;;;;;;;59.43;23.57;;;;;;;-2.02;98.51;100303.63;4892759;29;20223;-71
2020/12/03 08:44:53;;;;;;;53.67;23.20;;;;;;;-2.00;98.31;100315.59;4895186;29;20207;-73
2020/12/03 08:47:41;;;;;;;57.93;24.53;;;;;;;-1.94;98.44;100310.59;4920426;29;20219;-73
2020/12/03 08:50:24;;;;;;;59.13;23.93;;;;;;;-1.93;98.34;100303.81;4900307;29;20222;-72
2020/12/03 08:53:07;;;;;;;58.10;24.47;;;;;;;-1.95;98.16;100303.78;4895383;29;20312;-73
2020/12/03 08:55:44;;;;;;;55.40;23.77;;;;;;;-1.95;97.87;100303.78;4894203;29;20211;-73
2020/12/03 08:58:19;;;;;;;65.60;24.73;;;;;;;-1.85;98.17;100291.19;4891808;29;20236;-72
2020/12/03 09:01:04;;;;;;;56.17;22.70;;;;;;;-1.84;97.76;100295.47;4894464;29;20208;-71
2020/12/03 09:03:47;;;;;;;60.80;22.23;;;;;;;-1.86;97.77;100289.47;4908562;29;20211;-73
2020/12/03 09:06:25;;;;;;;49.47;21.47;;;;;;;-1.93;97.81;100289.34;4896213;29;21686;-73
2020/12/03 09:09:16;;;;;;;57.20;22.40;;;;;;;-1.85;98.25;100301.41;4896217;29;20268;-73
2020/12/03 09:11:50;;;;;;;53.87;21.90;;;;;;;-1.84;98.21;100291.22;4894364;29;20232;-71
2020/12/03 09:14:24;;;;;;;53.63;22.33;;;;;;;-1.84;98.15;100286.09;4895263;29;20204;-73
2020/12/03 09:17:06;;;;;;;54.10;23.57;;;;;;;-1.81;98.01;100280.16;4894601;29;20216;-72
2020/12/03 09:19:40;;;;;;;54.40;22.60;;;;;;;-1.79;98.22;100275.97;4900357;29;20436;-73
2020/12/03 09:22:39;;;;;;;56.23;22.80;;;;;;;-1.77;98.47;100274.28;4893016;29;20228;-71
2020/12/03 09:25:22;;;;;;;51.70;22.13;;;;;;;-1.75;98.04;100263.25;4894947;29;20707;-72
2020/12/03 09:28:15;;;;;;;50.80;21.17;;;;;;;-1.69;98.47;100269.31;4909545;29;20263;-73
2020/12/03 09:31:00;;;;;;;53.63;22.87;;;;;;;-1.65;98.40;100273.63;4893751;29;20201;-71
2020/12/03 09:34:03;;;;;;;47.07;22.53;;;;;;;-1.70;97.90;100271.00;4901907;29;20284;-73
2020/12/03 09:36:41;;;;;;;51.63;23.33;;;;;;;-1.70;97.69;100252.28;4895123;29;20212;-72
2020/12/03 09:39:16;;;;;;;52.00;23.47;;;;;;;-1.65;98.09;100256.63;4897579;29;20207;-71
2020/12/03 09:41:47;;;;;;;57.33;21.20;;;;;;;-1.65;97.75;100246.41;4895547;29;20267;-73
2020/12/03 09:44:31;;;;;;;52.93;23.77;;;;;;;-1.61;97.65;100245.59;4895832;29;20796;-73
2020/12/03 09:47:33;;;;;;;56.43;22.10;;;;;;;-1.54;98.13;100239.75;4893773;29;20761;-73
2020/12/03 09:50:13;;;;;;;57.50;23.77;;;;;;;-1.58;96.97;100232.03;4923334;29;20226;-71
2020/12/03 09:53:04;;;;;;;52.00;22.63;;;;;;;-1.57;97.27;100231.19;4888618;29;20220;-72
2020/12/03 09:55:37;;;;;;;50.43;23.20;;;;;;;-1.54;97.10;100226.13;4911633;29;20543;-73
2020/12/03 09:58:11;;;;;;;49.37;22.70;;;;;;;-1.47;97.49;100216.88;4893741;29;20228;-72
2020/12/03 10:00:51;;;;;;;58.47;23.93;;;;;;;-1.51;96.96;100215.94;4898352;29;20248;-72
2020/12/03 10:04:04;;;;;;;50.67;20.97;;;;;;;-1.42;97.44;100213.53;4897833;29;20236;-72
2020/12/03 10:07:08;;;;;;;49.43;21.53;;;;;;;-1.41;97.52;100211.81;4891123;29;20251;-73
2020/12/03 10:10:26;;;;;;;44.27;20.57;;;;;;;-1.39;97.46;100200.81;4895619;29;20196;-70
2020/12/03 10:13:30;;;;;;;46.77;19.67;;;;;;;-1.35;97.58;100183.81;4889968;29;20241;-72
2020/12/03 10:16:20;;;;;;;41.37;19.07;;;;;;;-1.35;97.82;100156.53;4882826;29;20577;-72
2020/12/03 10:19:06;;;;;;;44.80;21.33;;;;;;;-1.33;97.69;100162.50;4894751;29;20247;-72
2020/12/03 10:21:56;;;;;;;48.93;20.57;;;;;;;-1.34;97.52;100155.69;4890645;29;20229;-72
2020/12/03 10:24:57;;;;;;;46.90;20.63;;;;;;;-1.34;97.31;100157.38;4893340;29;20257;-73
2020/12/03 10:28:04;;;;;;;43.17;20.20;;;;;;;-1.35;97.27;100143.72;4891743;29;20295;-73
2020/12/03 10:30:38;;;;;;;42.33;20.10;;;;;;;-1.36;97.37;100146.25;4894787;29;20579;-72
2020/12/03 10:33:34;;;;;;;49.60;21.83;;;;;;;-1.33;97.56;100136.94;4894120;29;20224;-71
2020/12/03 10:36:38;;;;;;;43.50;20.37;;;;;;;-1.25;97.76;100134.50;4894085;29;20232;-72
2020/12/03 10:39:26;;;;;;;46.03;20.43;;;;;;;-1.20;97.59;100127.72;4893318;29;20215;-72
2020/12/03 10:41:59;;;;;;;47.17;21.30;;;;;;;-1.16;97.51;100111.59;4891371;29;20271;-71
2020/12/03 10:45:03;;;;;;;52.83;23.27;;;;;;;-1.19;97.24;100108.16;4911637;29;20223;-71
2020/12/03 10:47:56;;;;;;;46.10;19.73;;;;;;;-1.20;96.72;100102.16;4891981;29;20234;-72
2020/12/03 10:51:10;;;;;;;51.13;21.97;;;;;;;-1.19;96.89;100098.75;4897585;29;20220;-69
2020/12/03 10:53:59;;;;;;;48.47;21.13;;;;;;;-1.20;97.22;100096.19;4895026;29;20487;-73
2020/12/03 10:56:42;;;;;;;43.27;20.67;;;;;;;-1.19;97.05;100093.66;4894290;29;20573;-70
2020/12/03 10:59:40;;;;;;;46.23;20.20;;;;;;;-1.23;96.80;100083.34;4897628;29;20762;-72
2020/12/03 11:02:44;;;;;;;46.93;20.13;;;;;;;-1.19;97.22;100073.19;4896210;29;20571;-72
2020/12/03 11:05:29;;;;;;;50.43;20.80;;;;;;;-1.16;96.85;100077.50;4891775;29;20331;-72
2020/12/03 11:08:02;;;;;;;51.10;22.13;;;;;;;-1.12;97.05;100080.94;4893602;29;20581;-71
2020/12/03 11:11:04;;;;;;;52.37;22.03;;;;;;;-1.13;96.83;100079.22;4893995;29;20231;-72
2020/12/03 11:14:00;;;;;;;53.33;22.77;;;;;;;-1.08;96.80;100073.31;4897389;29;20200;-72
2020/12/03 11:16:47;;;;;;;52.87;22.43;;;;;;;-1.05;96.53;100070.78;4892484;29;20465;-70
2020/12/03 11:19:28;;;;;;;49.90;21.60;;;;;;;-0.95;96.52;100071.75;4896163;29;20764;-73
2020/12/03 11:22:23;;;;;;;52.30;22.33;;;;;;;-0.90;96.75;100070.09;4923311;29;20262;-71
2020/12/03 11:25:00;;;;;;;47.70;21.03;;;;;;;-0.98;96.00;100070.03;4894955;29;20283;-72
2020/12/03 11:27:45;;;;;;;49.00;21.40;;;;;;;-0.98;96.46;100062.34;4890503;29;20220;-72
2020/12/03 11:30:31;;;;;;;51.93;21.27;;;;;;;-0.98;96.14;100062.34;4895467;29;20216;-72
2020/12/03 11:36:05;;;;;;;46.30;20.33;;;;;;;-0.85;96.49;100047.13;4893738;29;20808;-72
2020/12/03 11:38:44;;;;;;;49.60;20.70;;;;;;;-0.88;96.00;100042.84;4893028;29;20268;-72
2020/12/03 11:41:30;;;;;;;43.23;20.37;;;;;;;-0.87;96.00;100047.09;4895151;29;20534;-73
2020/12/03 11:44:13;;;;;;;43.73;20.40;;;;;;;-0.79;95.66;100029.28;4907446;29;20238;-72
2020/12/03 11:49:56;;;;;;;45.10;20.10;;;;;;;-0.66;95.73;100020.03;4894683;29;20345;-72
2020/12/03 11:52:37;;;;;;;42.47;20.40;;;;;;;-0.63;95.82;100020.91;4890862;29;20228;-71
2020/12/03 11:55:38;;;;;;;46.10;19.93;;;;;;;-0.62;95.49;100016.63;4910695;29;20215;-71
2020/12/03 12:01:29;;;;;;;44.80;20.17;;;;;;;-0.58;95.09;100001.34;4892867;29;20211;-72
2020/12/03 12:04:14;;;;;;;37.17;17.73;;;;;;;-0.50;95.30;100001.38;4889451;29;20228;-71
2020/12/03 12:10:03;;;;;;;38.60;18.13;;;;;;;-0.35;94.73;99980.19;4877644;29;20689;-72
2020/12/03 12:12:41;;;;;;;38.70;18.23;;;;;;;-0.32;94.23;99972.50;4893876;29;20221;-73
2020/12/03 12:15:34;;;;;;;41.43;17.93;;;;;;;-0.20;94.92;99971.75;4918519;29;20216;-72
2020/12/03 12:18:20;;;;;;;41.83;18.80;;;;;;;-0.24;94.06;99965.75;4894930;29;20257;-73
2020/12/03 12:21:07;;;;;;;40.50;18.83;;;;;;;-0.23;93.93;99970.03;4891905;29;20275;-73
2020/12/03 12:23:42;;;;;;;40.97;18.00;;;;;;;-0.27;93.94;99960.59;4894258;29;20201;-72
2020/12/03 12:26:21;;;;;;;37.87;18.63;;;;;;;-0.26;94.11;99957.19;4893198;29;20216;-73
2020/12/03 12:28:57;;;;;;;41.77;19.73;;;;;;;-0.22;94.04;99956.34;4899439;29;20238;-73
2020/12/03 12:31:34;;;;;;;40.80;19.77;;;;;;;-0.18;93.55;99952.09;4896107;29;20709;-72